sensor_id;sensor_type;location;lat;lon;timestamp;temperature;humidity
20035;DHT22;10178;48.034;9.800;2023-03-14T00:00:11;12.80;99.90
20035;DHT22;10178;48.034;9.800;2023-03-14T00:02:37;12.60;99.90
20035;DHT22;10178;48.034;9.800;2023-03-14T00:05:03;12.70;99.90
20035;DHT22;10178;48.034;9.800;2023-03-14T00:07:36;12.90;99.90
20035;DHT22;10178;48.034;9.800;2023-03-14T00:10:04;13.10;99.90
20035;DHT22;10178;48.034;9.800;2023-03-14T00:12:31;13.20;99.90
20035;DHT22;10178;48.034;9.800;2023-03-14T00:14:57;13.10;99.90
20035;DHT22;10178;48.034;9.800;2023-03-14T00:17:23;13.10;99.90
20035;DHT22;10178;48.034;9.800;2023-03-14T00:19:48;13.10;99.90
20035;DHT22;10178;48.034;9.800;2023-03-14T00:22:17;13.10;99.90
20035;DHT22;10178;48.034;9.800;2023-03-14T00:24:43;13.10;99.90
20035;DHT22;10178;48.034;9.800;2023-03-14T00:27:08;13.00;99.90
20035;DHT22;10178;48.034;9.800;2023-03-14T00:29:34;13.00;99.90
20035;DHT22;10178;48.034;9.800;2023-03-14T00:32:00;12.70;99.90
20035;DHT22;10178;48.034;9.800;2023-03-14T00:34:29;12.30;99.90
20035;DHT22;10178;48.034;9.800;2023-03-14T00:36:55;12.30;99.90
20035;DHT22;10178;48.034;9.800;2023-03-14T00:39:20;12.30;99.90
20035;DHT22;10178;48.034;9.800;2023-03-14T00:41:46;12.40;99.90
20035;DHT22;10178;48.034;9.800;2023-03-14T00:44:12;12.50;99.90
20035;DHT22;10178;48.034;9.800;2023-03-14T00:46:38;12.30;99.90
20035;DHT22;10178;48.034;9.800;2023-03-14T00:49:04;12.00;99.90
20035;DHT22;10178;48.034;9.800;2023-03-14T00:51:30;12.00;99.90
20035;DHT22;10178;48.034;9.800;2023-03-14T00:53:55;11.90;99.90
20035;DHT22;10178;48.034;9.800;2023-03-14T00:56:21;11.70;99.90
20035;DHT22;10178;48.034;9.800;2023-03-14T00:58:47;11.40;99.90
20035;DHT22;10178;48.034;9.800;2023-03-14T01:01:15;11.00;99.90
20035;DHT22;10178;48.034;9.800;2023-03-14T01:03:41;10.70;99.90
20035;DHT22;10178;48.034;9.800;2023-03-14T01:06:17;10.90;99.90
20035;DHT22;10178;48.034;9.800;2023-03-14T01:08:43;10.70;99.90
20035;DHT22;10178;48.034;9.800;2023-03-14T01:11:11;10.90;99.90
20035;DHT22;10178;48.034;9.800;2023-03-14T01:13:38;10.60;99.90
20035;DHT22;10178;48.034;9.800;2023-03-14T01:16:06;10.60;99.90
20035;DHT22;10178;48.034;9.800;2023-03-14T01:18:33;10.00;99.90
20035;DHT22;10178;48.034;9.800;2023-03-14T01:21:00;9.60;99.90
20035;DHT22;10178;48.034;9.800;2023-03-14T01:23:26;9.20;99.90
20035;DHT22;10178;48.034;9.800;2023-03-14T01:25:52;8.90;99.90
20035;DHT22;10178;48.034;9.800;2023-03-14T01:28:17;8.80;99.90
20035;DHT22;10178;48.034;9.800;2023-03-14T01:30:43;8.80;99.90
20035;DHT22;10178;48.034;9.800;2023-03-14T01:33:08;8.80;99.90
20035;DHT22;10178;48.034;9.800;2023-03-14T01:35:34;8.90;99.90
20035;DHT22;10178;48.034;9.800;2023-03-14T01:38:00;9.00;99.90
20035;DHT22;10178;48.034;9.800;2023-03-14T01:40:25;9.20;99.90
20035;DHT22;10178;48.034;9.800;2023-03-14T01:42:56;9.20;99.90
20035;DHT22;10178;48.034;9.800;2023-03-14T01:48:26;9.50;99.90
20035;DHT22;10178;48.034;9.800;2023-03-14T01:50:54;9.70;99.90
20035;DHT22;10178;48.034;9.800;2023-03-14T01:53:20;9.80;99.90
20035;DHT22;10178;48.034;9.800;2023-03-14T01:55:48;10.00;99.90
20035;DHT22;10178;48.034;9.800;2023-03-14T01:58:14;10.10;99.90
20035;DHT22;10178;48.034;9.800;2023-03-14T02:00:42;10.20;99.90
20035;DHT22;10178;48.034;9.800;2023-03-14T02:03:14;10.30;99.90
20035;DHT22;10178;48.034;9.800;2023-03-14T02:05:41;10.30;99.90
20035;DHT22;10178;48.034;9.800;2023-03-14T02:08:10;10.10;99.90
20035;DHT22;10178;48.034;9.800;2023-03-14T02:10:41;10.10;99.90
20035;DHT22;10178;48.034;9.800;2023-03-14T02:13:08;10.10;99.90
20035;DHT22;10178;48.034;9.800;2023-03-14T02:15:34;10.00;99.90
20035;DHT22;10178;48.034;9.800;2023-03-14T02:18:01;9.50;99.90
20035;DHT22;10178;48.034;9.800;2023-03-14T02:23:05;8.60;99.90
20035;DHT22;10178;48.034;9.800;2023-03-14T02:28:25;8.40;99.90
20035;DHT22;10178;48.034;9.800;2023-03-14T02:30:51;8.00;99.90
20035;DHT22;10178;48.034;9.800;2023-03-14T02:33:19;7.90;99.90
20035;DHT22;10178;48.034;9.800;2023-03-14T02:35:57;7.90;99.90
20035;DHT22;10178;48.034;9.800;2023-03-14T02:38:29;8.10;99.90
20035;DHT22;10178;48.034;9.800;2023-03-14T02:40:56;8.30;99.90
20035;DHT22;10178;48.034;9.800;2023-03-14T02:43:22;8.20;99.90
20035;DHT22;10178;48.034;9.800;2023-03-14T02:45:49;8.10;99.90
20035;DHT22;10178;48.034;9.800;2023-03-14T02:48:18;8.10;99.90
20035;DHT22;10178;48.034;9.800;2023-03-14T02:50:47;8.40;99.90
20035;DHT22;10178;48.034;9.800;2023-03-14T02:53:20;8.30;99.90
20035;DHT22;10178;48.034;9.800;2023-03-14T02:55:50;8.40;99.90
20035;DHT22;10178;48.034;9.800;2023-03-14T02:58:16;8.50;99.90
20035;DHT22;10178;48.034;9.800;2023-03-14T03:00:42;8.40;99.90
20035;DHT22;10178;48.034;9.800;2023-03-14T03:03:08;8.30;99.90
20035;DHT22;10178;48.034;9.800;2023-03-14T03:05:34;8.40;99.90
20035;DHT22;10178;48.034;9.800;2023-03-14T03:07:59;8.60;99.90
20035;DHT22;10178;48.034;9.800;2023-03-14T03:10:26;9.20;99.90
20035;DHT22;10178;48.034;9.800;2023-03-14T03:12:52;9.10;99.90
20035;DHT22;10178;48.034;9.800;2023-03-14T03:15:17;9.10;99.90
20035;DHT22;10178;48.034;9.800;2023-03-14T03:17:43;9.30;99.90
20035;DHT22;10178;48.034;9.800;2023-03-14T03:20:09;9.10;99.90
20035;DHT22;10178;48.034;9.800;2023-03-14T03:22:36;9.30;99.90
20035;DHT22;10178;48.034;9.800;2023-03-14T03:25:04;9.30;99.90
20035;DHT22;10178;48.034;9.800;2023-03-14T03:27:31;8.90;99.90
20035;DHT22;10178;48.034;9.800;2023-03-14T03:29:57;8.70;99.90
20035;DHT22;10178;48.034;9.800;2023-03-14T03:32:23;8.20;99.90
20035;DHT22;10178;48.034;9.800;2023-03-14T03:34:49;8.10;99.90
20035;DHT22;10178;48.034;9.800;2023-03-14T03:37:14;8.20;99.90
20035;DHT22;10178;48.034;9.800;2023-03-14T03:39:40;8.50;99.90
20035;DHT22;10178;48.034;9.800;2023-03-14T03:42:06;8.50;99.90
20035;DHT22;10178;48.034;9.800;2023-03-14T03:44:31;8.50;99.90
20035;DHT22;10178;48.034;9.800;2023-03-14T03:46:57;8.50;99.90
20035;DHT22;10178;48.034;9.800;2023-03-14T03:49:23;8.60;99.90
20035;DHT22;10178;48.034;9.800;2023-03-14T03:51:48;8.50;99.90
20035;DHT22;10178;48.034;9.800;2023-03-14T03:54:14;8.50;99.90
20035;DHT22;10178;48.034;9.800;2023-03-14T03:56:40;8.70;99.90
20035;DHT22;10178;48.034;9.800;2023-03-14T03:59:05;8.70;99.90
20035;DHT22;10178;48.034;9.800;2023-03-14T04:01:31;8.40;99.90
20035;DHT22;10178;48.034;9.800;2023-03-14T04:03:56;8.30;99.90
20035;DHT22;10178;48.034;9.800;2023-03-14T04:06:23;8.20;99.90
20035;DHT22;10178;48.034;9.800;2023-03-14T04:08:48;8.10;99.90
20035;DHT22;10178;48.034;9.800;2023-03-14T04:11:14;7.90;99.90
20035;DHT22;10178;48.034;9.800;2023-03-14T04:13:40;8.00;99.90
20035;DHT22;10178;48.034;9.800;2023-03-14T04:16:14;8.20;99.90
20035;DHT22;10178;48.034;9.800;2023-03-14T04:18:40;8.10;99.90
20035;DHT22;10178;48.034;9.800;2023-03-14T04:21:06;8.00;99.90
20035;DHT22;10178;48.034;9.800;2023-03-14T04:23:32;7.90;99.90
20035;DHT22;10178;48.034;9.800;2023-03-14T04:25:58;8.00;99.90
20035;DHT22;10178;48.034;9.800;2023-03-14T04:28:24;7.90;99.90
20035;DHT22;10178;48.034;9.800;2023-03-14T04:30:50;8.30;99.90
20035;DHT22;10178;48.034;9.800;2023-03-14T04:33:15;8.50;99.90
20035;DHT22;10178;48.034;9.800;2023-03-14T04:35:45;8.40;99.90
20035;DHT22;10178;48.034;9.800;2023-03-14T04:38:12;8.20;99.90
20035;DHT22;10178;48.034;9.800;2023-03-14T04:40:38;8.40;99.90
20035;DHT22;10178;48.034;9.800;2023-03-14T04:43:04;8.30;99.90
20035;DHT22;10178;48.034;9.800;2023-03-14T04:45:30;8.60;99.90
20035;DHT22;10178;48.034;9.800;2023-03-14T04:47:55;8.80;99.90
20035;DHT22;10178;48.034;9.800;2023-03-14T04:50:21;8.50;99.90
20035;DHT22;10178;48.034;9.800;2023-03-14T04:52:46;8.10;99.90
20035;DHT22;10178;48.034;9.800;2023-03-14T04:55:12;8.00;99.90
20035;DHT22;10178;48.034;9.800;2023-03-14T04:57:37;8.00;99.90
20035;DHT22;10178;48.034;9.800;2023-03-14T05:00:04;8.00;99.90
20035;DHT22;10178;48.034;9.800;2023-03-14T05:02:34;7.90;99.90
20035;DHT22;10178;48.034;9.800;2023-03-14T05:04:59;7.90;99.90
20035;DHT22;10178;48.034;9.800;2023-03-14T05:07:25;7.90;99.90
20035;DHT22;10178;48.034;9.800;2023-03-14T05:09:51;7.90;99.90
20035;DHT22;10178;48.034;9.800;2023-03-14T05:12:18;7.80;99.90
20035;DHT22;10178;48.034;9.800;2023-03-14T05:14:43;8.00;99.90
20035;DHT22;10178;48.034;9.800;2023-03-14T05:17:09;7.80;99.90
20035;DHT22;10178;48.034;9.800;2023-03-14T05:19:35;7.80;99.90
20035;DHT22;10178;48.034;9.800;2023-03-14T05:22:01;7.60;99.90
20035;DHT22;10178;48.034;9.800;2023-03-14T05:24:26;7.50;99.90
20035;DHT22;10178;48.034;9.800;2023-03-14T05:26:53;7.70;99.90
20035;DHT22;10178;48.034;9.800;2023-03-14T05:29:18;7.60;99.90
20035;DHT22;10178;48.034;9.800;2023-03-14T05:31:44;7.60;99.90
20035;DHT22;10178;48.034;9.800;2023-03-14T05:34:09;7.60;99.90
20035;DHT22;10178;48.034;9.800;2023-03-14T05:36:35;7.50;99.90
20035;DHT22;10178;48.034;9.800;2023-03-14T05:39:01;7.60;99.90
20035;DHT22;10178;48.034;9.800;2023-03-14T05:41:26;7.80;99.90
20035;DHT22;10178;48.034;9.800;2023-03-14T05:43:52;7.80;99.90
20035;DHT22;10178;48.034;9.800;2023-03-14T05:46:17;7.60;99.90
20035;DHT22;10178;48.034;9.800;2023-03-14T05:48:43;7.60;99.90
20035;DHT22;10178;48.034;9.800;2023-03-14T05:51:09;7.60;99.90
20035;DHT22;10178;48.034;9.800;2023-03-14T05:53:34;7.50;99.90
20035;DHT22;10178;48.034;9.800;2023-03-14T05:56:00;7.60;99.90
20035;DHT22;10178;48.034;9.800;2023-03-14T05:58:25;7.60;99.90
20035;DHT22;10178;48.034;9.800;2023-03-14T06:00:51;7.70;99.90
20035;DHT22;10178;48.034;9.800;2023-03-14T06:03:17;7.70;99.90
20035;DHT22;10178;48.034;9.800;2023-03-14T06:05:42;7.80;99.90
20035;DHT22;10178;48.034;9.800;2023-03-14T06:08:08;7.70;99.90
20035;DHT22;10178;48.034;9.800;2023-03-14T06:10:35;8.00;99.90
20035;DHT22;10178;48.034;9.800;2023-03-14T06:13:01;8.30;99.90
20035;DHT22;10178;48.034;9.800;2023-03-14T06:15:27;8.10;99.90
20035;DHT22;10178;48.034;9.800;2023-03-14T06:17:54;8.20;99.90
20035;DHT22;10178;48.034;9.800;2023-03-14T06:20:20;8.10;99.90
20035;DHT22;10178;48.034;9.800;2023-03-14T06:22:46;7.90;99.90
20035;DHT22;10178;48.034;9.800;2023-03-14T06:25:11;8.10;99.90
20035;DHT22;10178;48.034;9.800;2023-03-14T06:27:37;8.20;99.90
20035;DHT22;10178;48.034;9.800;2023-03-14T06:30:03;7.90;99.90
20035;DHT22;10178;48.034;9.800;2023-03-14T06:32:29;8.00;99.90
20035;DHT22;10178;48.034;9.800;2023-03-14T06:34:54;8.20;99.90
20035;DHT22;10178;48.034;9.800;2023-03-14T06:37:20;8.20;99.90
20035;DHT22;10178;48.034;9.800;2023-03-14T06:39:46;8.10;99.90
20035;DHT22;10178;48.034;9.800;2023-03-14T06:42:11;8.10;99.90
20035;DHT22;10178;48.034;9.800;2023-03-14T06:44:37;8.10;99.90
20035;DHT22;10178;48.034;9.800;2023-03-14T06:47:02;7.90;99.90
20035;DHT22;10178;48.034;9.800;2023-03-14T06:49:28;8.00;99.90
20035;DHT22;10178;48.034;9.800;2023-03-14T06:51:54;8.00;99.90
20035;DHT22;10178;48.034;9.800;2023-03-14T06:54:19;8.00;99.90
20035;DHT22;10178;48.034;9.800;2023-03-14T06:56:45;8.00;99.90
20035;DHT22;10178;48.034;9.800;2023-03-14T06:59:11;8.10;99.90
20035;DHT22;10178;48.034;9.800;2023-03-14T07:01:36;8.20;99.90
20035;DHT22;10178;48.034;9.800;2023-03-14T07:04:02;8.10;99.90
20035;DHT22;10178;48.034;9.800;2023-03-14T07:06:28;8.10;99.90
20035;DHT22;10178;48.034;9.800;2023-03-14T07:08:56;8.30;99.90
20035;DHT22;10178;48.034;9.800;2023-03-14T07:11:23;8.10;99.90
20035;DHT22;10178;48.034;9.800;2023-03-14T07:13:48;8.10;99.90
20035;DHT22;10178;48.034;9.800;2023-03-14T07:16:14;8.10;99.90
20035;DHT22;10178;48.034;9.800;2023-03-14T07:18:40;8.20;99.90
20035;DHT22;10178;48.034;9.800;2023-03-14T07:21:08;8.30;99.90
20035;DHT22;10178;48.034;9.800;2023-03-14T07:23:35;8.20;99.90
20035;DHT22;10178;48.034;9.800;2023-03-14T07:26:01;8.10;99.90
20035;DHT22;10178;48.034;9.800;2023-03-14T07:28:26;8.20;99.90
20035;DHT22;10178;48.034;9.800;2023-03-14T07:30:53;8.10;99.90
20035;DHT22;10178;48.034;9.800;2023-03-14T07:33:18;8.30;99.90
20035;DHT22;10178;48.034;9.800;2023-03-14T07:35:49;8.40;99.90
20035;DHT22;10178;48.034;9.800;2023-03-14T07:38:18;8.50;99.90
20035;DHT22;10178;48.034;9.800;2023-03-14T07:40:44;8.40;99.90
20035;DHT22;10178;48.034;9.800;2023-03-14T07:43:09;8.40;99.90
20035;DHT22;10178;48.034;9.800;2023-03-14T07:45:35;8.40;99.90
20035;DHT22;10178;48.034;9.800;2023-03-14T07:48:01;8.40;99.90
20035;DHT22;10178;48.034;9.800;2023-03-14T07:50:27;8.50;99.90
20035;DHT22;10178;48.034;9.800;2023-03-14T07:52:55;8.60;99.90
20035;DHT22;10178;48.034;9.800;2023-03-14T07:55:20;8.90;99.90
20035;DHT22;10178;48.034;9.800;2023-03-14T07:57:46;9.10;99.90
20035;DHT22;10178;48.034;9.800;2023-03-14T08:00:12;9.10;99.90
20035;DHT22;10178;48.034;9.800;2023-03-14T08:02:40;9.10;99.90
20035;DHT22;10178;48.034;9.800;2023-03-14T08:05:06;9.20;99.90
20035;DHT22;10178;48.034;9.800;2023-03-14T08:07:32;9.10;99.90
20035;DHT22;10178;48.034;9.800;2023-03-14T08:09:57;9.40;99.90
20035;DHT22;10178;48.034;9.800;2023-03-14T08:12:23;9.50;99.90
20035;DHT22;10178;48.034;9.800;2023-03-14T08:14:49;9.50;99.90
20035;DHT22;10178;48.034;9.800;2023-03-14T08:17:14;9.50;99.90
20035;DHT22;10178;48.034;9.800;2023-03-14T08:19:41;9.60;99.90
20035;DHT22;10178;48.034;9.800;2023-03-14T08:22:07;9.50;99.90
20035;DHT22;10178;48.034;9.800;2023-03-14T08:24:33;9.70;99.90
20035;DHT22;10178;48.034;9.800;2023-03-14T08:26:58;9.60;99.90
20035;DHT22;10178;48.034;9.800;2023-03-14T08:29:24;9.60;99.90
20035;DHT22;10178;48.034;9.800;2023-03-14T08:31:50;9.80;99.90
20035;DHT22;10178;48.034;9.800;2023-03-14T08:34:15;9.80;99.90
20035;DHT22;10178;48.034;9.800;2023-03-14T08:36:41;9.60;99.90
20035;DHT22;10178;48.034;9.800;2023-03-14T08:39:07;9.70;99.90
20035;DHT22;10178;48.034;9.800;2023-03-14T08:41:33;9.80;99.90
20035;DHT22;10178;48.034;9.800;2023-03-14T08:44:06;9.90;99.90
20035;DHT22;10178;48.034;9.800;2023-03-14T08:46:31;10.00;99.90
20035;DHT22;10178;48.034;9.800;2023-03-14T08:48:57;10.10;99.90
20035;DHT22;10178;48.034;9.800;2023-03-14T08:51:22;10.10;99.90
20035;DHT22;10178;48.034;9.800;2023-03-14T08:53:48;9.90;99.90
20035;DHT22;10178;48.034;9.800;2023-03-14T08:56:14;10.10;99.90
20035;DHT22;10178;48.034;9.800;2023-03-14T08:58:39;10.10;99.90
20035;DHT22;10178;48.034;9.800;2023-03-14T09:01:08;10.00;99.90
20035;DHT22;10178;48.034;9.800;2023-03-14T09:03:34;10.00;99.90
20035;DHT22;10178;48.034;9.800;2023-03-14T09:06:08;10.10;99.90
20035;DHT22;10178;48.034;9.800;2023-03-14T09:08:35;10.20;99.90
20035;DHT22;10178;48.034;9.800;2023-03-14T09:11:01;10.10;99.90
20035;DHT22;10178;48.034;9.800;2023-03-14T09:13:27;10.20;99.90
20035;DHT22;10178;48.034;9.800;2023-03-14T09:15:56;10.20;99.90
20035;DHT22;10178;48.034;9.800;2023-03-14T09:18:22;10.20;99.90
20035;DHT22;10178;48.034;9.800;2023-03-14T09:20:48;10.30;99.90
20035;DHT22;10178;48.034;9.800;2023-03-14T09:23:14;10.20;99.90
20035;DHT22;10178;48.034;9.800;2023-03-14T09:25:40;10.30;99.90
20035;DHT22;10178;48.034;9.800;2023-03-14T09:28:05;10.40;99.90
20035;DHT22;10178;48.034;9.800;2023-03-14T09:30:31;10.50;99.90
20035;DHT22;10178;48.034;9.800;2023-03-14T09:32:57;10.60;99.90
20035;DHT22;10178;48.034;9.800;2023-03-14T09:35:24;10.70;99.90
20035;DHT22;10178;48.034;9.800;2023-03-14T09:37:50;10.80;99.90
20035;DHT22;10178;48.034;9.800;2023-03-14T09:40:17;10.80;99.90
20035;DHT22;10178;48.034;9.800;2023-03-14T09:42:43;10.70;99.90
20035;DHT22;10178;48.034;9.800;2023-03-14T09:45:35;10.70;99.90
20035;DHT22;10178;48.034;9.800;2023-03-14T09:48:03;10.80;99.90
20035;DHT22;10178;48.034;9.800;2023-03-14T09:50:42;10.90;99.90
20035;DHT22;10178;48.034;9.800;2023-03-14T09:53:20;11.00;99.90
20035;DHT22;10178;48.034;9.800;2023-03-14T09:55:49;11.00;99.90
20035;DHT22;10178;48.034;9.800;2023-03-14T09:58:20;11.00;99.90
20035;DHT22;10178;48.034;9.800;2023-03-14T10:00:46;11.00;99.90
20035;DHT22;10178;48.034;9.800;2023-03-14T10:03:24;11.10;99.90
20035;DHT22;10178;48.034;9.800;2023-03-14T10:05:50;11.10;99.90
20035;DHT22;10178;48.034;9.800;2023-03-14T10:08:16;11.20;99.90
20035;DHT22;10178;48.034;9.800;2023-03-14T10:10:42;11.20;99.90
20035;DHT22;10178;48.034;9.800;2023-03-14T10:13:17;11.20;99.90
20035;DHT22;10178;48.034;9.800;2023-03-14T10:16:08;11.20;99.90
20035;DHT22;10178;48.034;9.800;2023-03-14T10:18:33;11.20;99.90
20035;DHT22;10178;48.034;9.800;2023-03-14T10:21:26;11.20;99.90
20035;DHT22;10178;48.034;9.800;2023-03-14T10:23:53;11.10;99.90
20035;DHT22;10178;48.034;9.800;2023-03-14T10:26:24;11.10;99.90
20035;DHT22;10178;48.034;9.800;2023-03-14T10:28:55;11.10;99.90
20035;DHT22;10178;48.034;9.800;2023-03-14T10:31:27;11.10;99.90
20035;DHT22;10178;48.034;9.800;2023-03-14T10:34:01;11.10;99.90
20035;DHT22;10178;48.034;9.800;2023-03-14T10:36:29;11.00;99.90
20035;DHT22;10178;48.034;9.800;2023-03-14T10:39:23;10.90;99.90
20035;DHT22;10178;48.034;9.800;2023-03-14T10:41:53;10.80;99.90
20035;DHT22;10178;48.034;9.800;2023-03-14T10:44:22;10.70;99.90
20035;DHT22;10178;48.034;9.800;2023-03-14T10:46:59;10.80;99.90
20035;DHT22;10178;48.034;9.800;2023-03-14T10:54:39;10.70;99.90
20035;DHT22;10178;48.034;9.800;2023-03-14T10:57:05;10.80;99.90
20035;DHT22;10178;48.034;9.800;2023-03-14T10:59:39;10.70;99.90
20035;DHT22;10178;48.034;9.800;2023-03-14T11:05:49;10.70;99.90
20035;DHT22;10178;48.034;9.800;2023-03-14T11:07:48;10.80;99.90
20035;DHT22;10178;48.034;9.800;2023-03-14T11:10:20;11.00;99.90
20035;DHT22;10178;48.034;9.800;2023-03-14T11:13:05;11.00;99.90
20035;DHT22;10178;48.034;9.800;2023-03-14T11:16:13;10.90;99.90
20035;DHT22;10178;48.034;9.800;2023-03-14T11:19:20;11.00;99.90
20035;DHT22;10178;48.034;9.800;2023-03-14T11:30:38;10.80;99.90
20035;DHT22;10178;48.034;9.800;2023-03-14T11:33:14;10.90;99.90
20035;DHT22;10178;48.034;9.800;2023-03-14T11:38:38;10.70;99.90
20035;DHT22;10178;48.034;9.800;2023-03-14T11:41:12;10.50;99.90
20035;DHT22;10178;48.034;9.800;2023-03-14T11:43:40;10.50;99.90
20035;DHT22;10178;48.034;9.800;2023-03-14T11:46:17;10.50;99.90
20035;DHT22;10178;48.034;9.800;2023-03-14T11:51:25;10.40;99.90
20035;DHT22;10178;48.034;9.800;2023-03-14T11:56:55;10.20;99.90
20035;DHT22;10178;48.034;9.800;2023-03-14T12:02:21;10.10;99.90
20035;DHT22;10178;48.034;9.800;2023-03-14T12:10:58;9.80;99.90
20035;DHT22;10178;48.034;9.800;2023-03-14T12:13:29;9.90;99.90
20035;DHT22;10178;48.034;9.800;2023-03-14T12:15:59;9.80;99.90
20035;DHT22;10178;48.034;9.800;2023-03-14T12:18:28;9.70;99.90
20035;DHT22;10178;48.034;9.800;2023-03-14T12:20:57;9.80;99.90
20035;DHT22;10178;48.034;9.800;2023-03-14T12:23:24;9.80;99.90
20035;DHT22;10178;48.034;9.800;2023-03-14T12:26:27;9.70;99.90
20035;DHT22;10178;48.034;9.800;2023-03-14T12:29:11;9.70;99.90
20035;DHT22;10178;48.034;9.800;2023-03-14T12:31:45;9.70;99.90
20035;DHT22;10178;48.034;9.800;2023-03-14T12:36:49;9.60;99.90
20035;DHT22;10178;48.034;9.800;2023-03-14T12:45:23;9.30;99.90
20035;DHT22;10178;48.034;9.800;2023-03-14T12:51:00;9.30;99.90
20035;DHT22;10178;48.034;9.800;2023-03-14T12:56:35;9.40;99.90
20035;DHT22;10178;48.034;9.800;2023-03-14T13:08:03;9.30;99.90
20035;DHT22;10178;48.034;9.800;2023-03-14T13:10:29;9.10;99.90
20035;DHT22;10178;48.034;9.800;2023-03-14T13:15:39;8.80;99.90
20035;DHT22;10178;48.034;9.800;2023-03-14T13:21:17;8.50;99.90
20035;DHT22;10178;48.034;9.800;2023-03-14T13:24:03;8.40;99.90
20035;DHT22;10178;48.034;9.800;2023-03-14T13:26:42;8.50;99.90
20035;DHT22;10178;48.034;9.800;2023-03-14T13:31:49;8.60;99.90
20035;DHT22;10178;48.034;9.800;2023-03-14T13:34:14;8.70;99.90
20035;DHT22;10178;48.034;9.800;2023-03-14T13:36:40;8.60;99.90
20035;DHT22;10178;48.034;9.800;2023-03-14T13:39:23;8.60;99.90
20035;DHT22;10178;48.034;9.800;2023-03-14T13:42:00;8.50;99.90
20035;DHT22;10178;48.034;9.800;2023-03-14T13:44:30;8.40;99.90
20035;DHT22;10178;48.034;9.800;2023-03-14T13:47:05;8.60;99.90
20035;DHT22;10178;48.034;9.800;2023-03-14T13:49:33;8.60;99.90
20035;DHT22;10178;48.034;9.800;2023-03-14T13:52:01;8.60;99.90
20035;DHT22;10178;48.034;9.800;2023-03-14T13:54:28;8.80;99.90
20035;DHT22;10178;48.034;9.800;2023-03-14T13:57:03;8.80;99.90
20035;DHT22;10178;48.034;9.800;2023-03-14T13:59:34;9.00;99.90
20035;DHT22;10178;48.034;9.800;2023-03-14T14:02:15;9.20;99.90
20035;DHT22;10178;48.034;9.800;2023-03-14T14:04:41;9.20;99.90
20035;DHT22;10178;48.034;9.800;2023-03-14T14:07:15;9.30;99.90
20035;DHT22;10178;48.034;9.800;2023-03-14T14:09:49;9.40;99.90
20035;DHT22;10178;48.034;9.800;2023-03-14T14:12:42;9.50;99.90
20035;DHT22;10178;48.034;9.800;2023-03-14T14:15:15;9.50;99.90
20035;DHT22;10178;48.034;9.800;2023-03-14T14:17:51;9.50;99.90
20035;DHT22;10178;48.034;9.800;2023-03-14T14:21:02;9.50;99.90
20035;DHT22;10178;48.034;9.800;2023-03-14T14:23:22;9.50;99.90
20035;DHT22;10178;48.034;9.800;2023-03-14T14:25:55;9.50;99.90
20035;DHT22;10178;48.034;9.800;2023-03-14T14:28:28;9.50;99.90
20035;DHT22;10178;48.034;9.800;2023-03-14T14:33:56;9.30;99.90
20035;DHT22;10178;48.034;9.800;2023-03-14T14:36:40;9.30;99.90
20035;DHT22;10178;48.034;9.800;2023-03-14T14:39:26;9.30;99.90
20035;DHT22;10178;48.034;9.800;2023-03-14T14:41:52;9.30;99.90
20035;DHT22;10178;48.034;9.800;2023-03-14T14:46:55;9.40;99.90
20035;DHT22;10178;48.034;9.800;2023-03-14T14:49:21;9.50;99.90
20035;DHT22;10178;48.034;9.800;2023-03-14T14:51:50;9.40;99.90
20035;DHT22;10178;48.034;9.800;2023-03-14T14:54:19;9.40;99.90
20035;DHT22;10178;48.034;9.800;2023-03-14T14:57:02;9.40;99.90
20035;DHT22;10178;48.034;9.800;2023-03-14T14:59:28;9.40;99.90
20035;DHT22;10178;48.034;9.800;2023-03-14T15:01:59;9.40;99.90
20035;DHT22;10178;48.034;9.800;2023-03-14T15:04:26;9.40;99.90
20035;DHT22;10178;48.034;9.800;2023-03-14T15:06:52;9.50;99.90
20035;DHT22;10178;48.034;9.800;2023-03-14T15:09:18;9.50;99.90
20035;DHT22;10178;48.034;9.800;2023-03-14T15:11:46;9.40;99.90
20035;DHT22;10178;48.034;9.800;2023-03-14T15:14:11;9.30;99.90
20035;DHT22;10178;48.034;9.800;2023-03-14T15:16:38;9.20;99.90
20035;DHT22;10178;48.034;9.800;2023-03-14T15:19:19;9.30;99.90
20035;DHT22;10178;48.034;9.800;2023-03-14T15:21:44;9.30;99.90
20035;DHT22;10178;48.034;9.800;2023-03-14T15:24:10;9.30;99.90
20035;DHT22;10178;48.034;9.800;2023-03-14T15:26:36;9.30;99.90
20035;DHT22;10178;48.034;9.800;2023-03-14T15:29:02;9.20;99.90
20035;DHT22;10178;48.034;9.800;2023-03-14T15:31:27;9.10;99.90
20035;DHT22;10178;48.034;9.800;2023-03-14T15:33:53;9.10;99.90
20035;DHT22;10178;48.034;9.800;2023-03-14T15:36:27;9.10;99.90
20035;DHT22;10178;48.034;9.800;2023-03-14T15:38:54;9.00;99.90
20035;DHT22;10178;48.034;9.800;2023-03-14T15:41:21;9.00;99.90
20035;DHT22;10178;48.034;9.800;2023-03-14T15:43:47;8.80;99.90
20035;DHT22;10178;48.034;9.800;2023-03-14T15:46:13;9.00;99.90
20035;DHT22;10178;48.034;9.800;2023-03-14T15:48:40;9.30;99.90
20035;DHT22;10178;48.034;9.800;2023-03-14T15:51:06;9.80;99.90
20035;DHT22;10178;48.034;9.800;2023-03-14T15:53:32;9.90;99.90
20035;DHT22;10178;48.034;9.800;2023-03-14T15:55:58;10.10;99.90
20035;DHT22;10178;48.034;9.800;2023-03-14T15:58:23;10.20;99.90
20035;DHT22;10178;48.034;9.800;2023-03-14T16:00:50;10.40;99.90
20035;DHT22;10178;48.034;9.800;2023-03-14T16:03:15;10.60;99.90
20035;DHT22;10178;48.034;9.800;2023-03-14T16:05:41;10.80;99.90
20035;DHT22;10178;48.034;9.800;2023-03-14T16:08:07;10.80;99.90
20035;DHT22;10178;48.034;9.800;2023-03-14T16:10:33;10.80;99.90
20035;DHT22;10178;48.034;9.800;2023-03-14T16:12:59;10.90;99.90
20035;DHT22;10178;48.034;9.800;2023-03-14T16:15:25;11.00;99.90
20035;DHT22;10178;48.034;9.800;2023-03-14T16:17:54;11.00;99.90
20035;DHT22;10178;48.034;9.800;2023-03-14T16:20:20;11.10;99.90
20035;DHT22;10178;48.034;9.800;2023-03-14T16:22:46;10.90;99.90
20035;DHT22;10178;48.034;9.800;2023-03-14T16:25:12;10.90;99.90
20035;DHT22;10178;48.034;9.800;2023-03-14T16:27:38;11.00;99.90
20035;DHT22;10178;48.034;9.800;2023-03-14T16:30:04;11.00;99.90
20035;DHT22;10178;48.034;9.800;2023-03-14T16:32:30;11.00;99.90
20035;DHT22;10178;48.034;9.800;2023-03-14T16:34:56;10.80;99.90
20035;DHT22;10178;48.034;9.800;2023-03-14T16:37:25;10.70;99.90
20035;DHT22;10178;48.034;9.800;2023-03-14T16:39:52;9.80;99.90
20035;DHT22;10178;48.034;9.800;2023-03-14T16:42:18;9.50;99.90
20035;DHT22;10178;48.034;9.800;2023-03-14T16:44:44;9.50;99.90
20035;DHT22;10178;48.034;9.800;2023-03-14T16:47:10;9.50;99.90
20035;DHT22;10178;48.034;9.800;2023-03-14T16:49:36;9.50;99.90
20035;DHT22;10178;48.034;9.800;2023-03-14T16:52:01;9.80;99.90
20035;DHT22;10178;48.034;9.800;2023-03-14T16:54:27;9.90;99.90
20035;DHT22;10178;48.034;9.800;2023-03-14T16:56:53;9.80;99.90
20035;DHT22;10178;48.034;9.800;2023-03-14T16:59:19;9.30;99.90
20035;DHT22;10178;48.034;9.800;2023-03-14T17:01:44;9.20;99.90
20035;DHT22;10178;48.034;9.800;2023-03-14T17:04:11;8.60;99.90
20035;DHT22;10178;48.034;9.800;2023-03-14T17:06:37;8.70;99.90